• Join FlightAware (Why Join?)
  • Login
  • US Flag 
11:35AM EST


 

Airport Tracker/Info


-or-


 

Live Flight TrackerFlight Track Log ✈ N770NC ✈ 12-Jun-2013 ✈ KATL - KAGS

Flight Track Log - Related Links

Times and Time Zones

All times are in EDT time to prevent confusion due to time zone crossing. See the N770NC flight status page for this flight to view local times or setup timezone preferences in your user account.

Time Position Orientation Groundspeed Altitude Reporting Facility
EDT Latitude Longitude Course Direction KTS MPH feet Rate Location/Type
09:45PM 33.6333 -84.4500 90° East 161 185 2,200  Level Atlanta TRACON
09:46PM 33.6000 -84.5333 244° Southwest 256 295 4,300 2,100 Climbing Atlanta TRACON
09:47PM 33.5500 -84.5833 220° Southwest 273 314 6,700 2,340 Climbing Atlanta TRACON
09:48PM 33.6243 -84.0726 92° East  Level FlightAware Approximate
09:48PM 33.4667 -84.5833 180° South 293 337 9,000  Level Atlanta TRACON
09:49PM 33.6200 -83.9542 92° East  Level FlightAware Approximate
09:50PM 33.6061 -83.8369 90° East  Level Estimated
09:50PM 33.4536 -84.3922 95° East 295 339 11,600  Level Atlanta Center
09:51PM 33.5922 -83.7196 90° East  Level Estimated
09:51PM 33.4642 -84.2681 84° East 350 403 13,900  Level Atlanta Center
09:52PM 33.4833 -84.1408 80° East 377 434 15,600 1,500 Climbing Atlanta Center
09:53PM 33.5000 -84.0114 81° East 390 449 16,900 660 Climbing Atlanta Center
09:54PM 33.5164 -83.8694 82° East 405 466 17,000  Climbing Atlanta Center
09:55PM 33.5206 -83.7322 88° East 417 480 17,000  Level Atlanta Center
09:56PM 33.5178 -83.5928 91° East 417 480 17,000  Level Atlanta Center
09:57PM 33.5214 -83.4558 88° East 412 474 17,000 -780 Level Atlanta Center
09:58PM 33.5208 -83.3261 90° East 398 458 15,500 -2,100 Descending Atlanta Center
09:59PM 33.5242 -83.1967 88° East 389 448 12,900 -2,160 Descending Atlanta Center
10:00PM 33.5294 -83.0694 87° East 382 440 11,200 -960 Descending Atlanta Center
10:01PM 33.5306 -82.9597 89° East 374 430 11,000 -120 Descending Atlanta Center
10:02PM 33.5358 -82.8400 87° East 360 414 11,000 -360 Level Atlanta Center
10:03PM 33.5408 -82.7228 87° East 339 390 10,300 -1,260 Descending Atlanta Center
10:04PM 33.5419 -82.6256 89° East 313 360 8,500 -1,740 Descending Atlanta Center
10:05PM 33.5158 -82.5414 110° East 296 341 6,900 -1,680 Descending Atlanta Center
10:06PM 33.4875 -82.4497 110° East 290 334 5,200 -1,740 Descending Atlanta Center
10:07PM 33.4592 -82.3631 111° Southeast 284 327 3,500 -1,140 Descending Atlanta Center
10:08PM 33.4331 -82.2789 110° East 284 327 3,000 -300 Descending Atlanta Center
10:09PM 33.4089 -82.1972 109° East 267 307 3,000  Level Atlanta Center
10:10PM 33.3847 -82.1206 111° Southeast 256 295 3,000 -180 Level Atlanta Center
10:11PM 33.3464 -82.0742 135° Southeast 234 269 2,700 -300 Descending Atlanta Center